• Join FlightAware (Why Join?)
  • Login
  • US Flag 
01:01AM EDT


 

Airport Tracker/Info


-or-


 

Live Flight TrackerFlight Track Log ✈ GJS3649 ✈ 08-Jul-2013 ✈ KORD - KBDL

Flight Track Log - Related Links

Times and Time Zones

All times are in EDT time to prevent confusion due to time zone crossing. See the GJS3649 flight status page for this flight to view local times or setup timezone preferences in your user account.

Time Position Orientation Groundspeed Altitude Reporting Facility
EDT Latitude Longitude Course Direction KTS MPH feet Rate Location/Type
01:16PM 42.0333 -87.9333 37° Northeast 214 246 2,500  Level Chicago TRACON
01:17PM 42.0833 -87.8833 37° Northeast 239 275 4,600 1,380 Climbing Chicago TRACON
01:18PM 42.1406 -87.8239 38° Northeast 254 292 5,400 1,560 Climbing Chicago Center
01:19PM 42.1875 -87.7358 54° Northeast 295 339 8,000 2,400 Climbing Chicago Center
01:20PM 42.1842 -87.6194 92° East 317 365 10,400 2,100 Climbing Chicago Center
01:21PM 42.1656 -87.4672 99° East 343 395 12,400 1,920 Climbing Chicago Center
01:22PM 42.1472 -87.3294 100° East 369 425 14,400 1,860 Climbing Chicago Center
01:23PM 42.1283 -87.1864 100° East 386 444 16,300 1,740 Climbing Chicago Center
01:24PM 42.1136 -87.0381 98° East 397 457 18,100 1,380 Climbing Chicago Center
01:25PM 42.1189 -86.8908 87° East 398 458 19,200 1,200 Climbing Chicago Center
01:26PM 42.1247 -86.7086 87° East 407 468 20,600 1,260 Climbing Chicago Center
01:27PM 42.1306 -86.5561 87° East 419 482 21,900 1,200 Climbing Chicago Center
01:28PM 42.1353 -86.3942 88° East 431 496 23,100 1,020 Climbing Chicago Center
01:29PM 42.1411 -86.2286 87° East 440 506 24,100 1,080 Climbing Chicago Center
01:30PM 42.1444 -86.0617 88° East 445 512 25,400 960 Climbing Chicago Center
01:31PM 42.1422 -85.8736 91° East 450 518 26,200 480 Climbing Chicago Center
01:33PM 42.1403 -85.6994 91° East 461 531 26,500 300 Climbing Chicago Center
01:34PM 42.1392 -85.5256 90° East 466 536 26,900 480 Climbing Chicago Center
01:35PM 42.1375 -85.3522 91° East 467 537 27,600 600 Climbing Chicago Center
01:36PM 42.1356 -85.1436 91° East 469 540 28,200 480 Climbing Chicago Center
01:37PM 42.1328 -84.9714 91° East 464 534 28,700 480 Climbing Chicago Center
01:38PM 42.1381 -84.8011 88° East 456 525 29,200 480 Climbing Chicago Center
01:39PM 42.1531 -84.6272 83° East 467 537 29,700 720 Climbing Chicago Center
01:40PM 42.1686 -84.4508 83° East 476 548 30,800 840 Climbing Chicago Center
01:41PM 42.1858 -84.2394 84° East 475 547 31,500 600 Climbing Chicago Center
01:42PM 42.2003 -84.0608 84° East 481 554 32,100 540 Climbing Chicago Center
01:43PM 42.2156 -83.8803 83° East 485 558 32,700 540 Climbing Chicago Center
01:44PM 42.2292 -83.7006 84° East 484 557 33,300 600 Climbing Chicago Center
01:45PM 42.2422 -83.4833 85° East 484 557 34,100 660 Climbing Cleveland Center
01:46PM 42.2556 -83.2819 85° East 489 563 34,800 420 Climbing Cleveland Center
01:47PM 42.2678 -83.1142 84° East 494 568 35,000 60 Climbing Cleveland Center
01:48PM 42.2817 -82.9406 84° East 484 557 35,000  Level Cleveland Center
01:49PM 42.2936 -82.7669 85° East 474 545 35,000  Level Cleveland Center
01:50PM 42.3050 -82.5989 85° East 457 526 35,000  Level Cleveland Center
01:51PM 42.3161 -82.4253 85° East 457 526 35,000  Level Cleveland Center
01:52PM 42.3292 -82.2514 84° East 457 526 35,000  Level Cleveland Center
01:53PM 42.3422 -82.0608 85° East 462 532 35,000  Level Cleveland Center
01:54PM 42.3525 -81.9008 85° East 467 537 35,000  Level Cleveland Center
01:55PM 42.3628 -81.7242 85° East 467 537 35,000  Level Cleveland Center
01:56PM 42.3728 -81.5472 86° East 467 537 35,000  Level Cleveland Center
01:57PM 42.3844 -81.3675 85° East 472 543 35,000  Level Cleveland Center
01:58PM 42.3939 -81.1875 86° East 472 543 35,000  Level Cleveland Center
02:00PM 42.3988 -80.9708 88° East  Level FlightAware Approximate
02:00PM 42.4142 -80.8194 88° East 471 542 35,000  Level Cleveland Center
02:01PM 42.4206 -80.6450 87° East 466 536 35,000  Level Cleveland Center
02:02PM 42.4289 -80.4733 86° East 457 526 35,000  Level Cleveland Center
02:03PM 42.4389 -80.2933 86° East 462 532 35,000  Level Cleveland Center
02:04PM 42.4447 -80.1161 87° East 462 532 35,000  Level Cleveland Center
02:05PM 42.4544 -79.9528 85° East 473 544 35,000  Level Cleveland Center
02:06PM 42.4617 -79.7783 87° East 473 544 35,000  Level Cleveland Center
02:07PM 42.4683 -79.5839 87° East 473 544 35,000  Level Cleveland Center
02:08PM 42.4772 -79.4092 86° East 473 544 35,000  Level Cleveland Center
02:09PM 42.4836 -79.2347 87° East 473 544 35,000  Level Cleveland Center
02:10PM 42.4897 -79.0628 87° East 463 533 35,000  Level Cleveland Center
02:11PM 42.4958 -78.8908 87° East 457 526 35,000  Level Cleveland Center
02:12PM 42.5036 -78.7217 86° East 457 526 35,000  Level Cleveland Center
02:13PM 42.5069 -78.5497 88° East 457 526 35,000  Level Cleveland Center
02:14PM 42.5122 -78.3778 88° East 462 532 35,000  Level Cleveland Center
02:15PM 42.5169 -78.2056 88° East 456 525 35,000  Level Cleveland Center
02:16PM 42.5217 -78.0336 88° East 456 525 35,000  Level Cleveland Center
02:17PM 42.5261 -77.8644 88° East 461 531 35,000 -60 Level Cleveland Center
02:18PM 42.5325 -77.6950 87° East 456 525 34,900  Descending Cleveland Center
02:19PM 42.5367 -77.5314 88° East 450 518 35,000  Climbing Cleveland Center
02:20PM 42.5367 -77.3847 90° East 438 504 35,000  Level Cleveland Center
02:22PM 42.5439 -77.0119 88° East 406 467 35,000  Level Boston Center
02:23PM 42.5481 -76.8569 88° East 411 473 35,000  Level Boston Center
02:24PM 42.5497 -76.6992 89° East 406 467 35,000 -120 Level Boston Center
02:25PM 42.5517 -76.5386 89° East 406 467 34,800 -600 Descending Boston Center
02:26PM 42.5553 -76.3781 88° East 418 481 33,800 -960 Descending Boston Center
02:27PM 42.5581 -76.2317 88° East 423 487 32,900 -960 Descending Boston Center
02:28PM 42.5569 -76.0708 90° East 423 487 31,900 -1,020 Descending Boston Center
02:29PM 42.5597 -75.9158 89° East 418 481 30,900 -1,020 Descending Boston Center
02:30PM 42.5397 -75.7514 99° East 424 488 29,900 -1,200 Descending Boston Center
02:31PM 42.5153 -75.5808 101° East 439 505 28,500 -2,280 Descending Boston Center
02:32PM 42.4925 -75.4192 101° East 444 511 25,400 -2,700 Descending Boston Center
02:33PM 42.4697 -75.2606 101° East 437 503 23,100 -1,200 Descending Boston Center
02:34PM 42.4692 -75.1000 90° East 415 478 23,000 -120 Descending Boston Center
02:35PM 42.4725 -74.9567 88° East 389 448 22,900 -480 Descending Boston Center
02:36PM 42.4756 -74.8131 88° East 384 442 22,100 -840 Descending Boston Center
02:37PM 42.4786 -74.6669 88° East 384 442 21,300 -780 Descending Boston Center
02:39PM 42.4668 -74.4956 87° East  Level FlightAware Approximate
02:39PM 42.4836 -74.3994 87° East 378 435 19,800  Level Boston Center
02:40PM 42.4842 -74.2419 90° East 372 428 18,900 -900 Descending Boston Center
02:41PM 42.4858 -74.1181 89° East 372 428 18,100 -900 Descending Boston Center
02:42PM 42.4861 -73.9661 90° East 361 415 17,200 -960 Descending Boston Center
02:43PM 42.4897 -73.8422 88° East 366 421 16,200 -1,020 Descending Boston Center
02:44PM 42.4914 -73.6931 89° East 361 415 15,200 -960 Descending Boston Center
02:45PM 42.4928 -73.5719 89° East 361 415 14,300 -1,020 Descending Boston Center
02:46PM 42.4836 -73.4311 95° East 356 410 13,200 -1,200 Descending Boston Center
02:47PM 42.4639 -73.3014 102° East 349 402 12,000 -1,080 Descending Boston Center
02:48PM 42.4478 -73.1997 102° East 345 397 11,300 -600 Descending Boston Center
02:49PM 42.4319 -73.0869 101° East 340 391 11,000 -120 Descending Boston Center
02:50PM 42.4139 -72.9519 100° East 317 365 11,100 -420 Climbing Boston Center
02:51PM 42.3997 -72.8394 100° East 305 351 10,200 -540 Descending Boston Center
02:52PM 42.3833 -72.7297 101° East 300 345 10,100 -600 Descending Boston Center
02:53PM 42.3419 -72.6114 115° Southeast 307 353 9,000 -1,320 Descending Boston Center
02:54PM 42.3275 -72.5019 100° East 295 339 7,400 -1,560 Descending Boston Center
02:55PM 42.3044 -72.4036 108° East 286 329 5,900 -1,140 Descending Boston Center
02:56PM 42.2378 -72.3867 169° South 250 288 5,100 -840 Descending Boston Center
02:57PM 42.1858 -72.4178 204° Southwest 224 258 4,400 -840 Descending Boston Center
02:58PM 42.1294 -72.4569 207° Southwest 228 262 3,600 -900 Descending Boston Center
02:59PM 42.0794 -72.5017 214° Southwest 222 255 2,600 -600 Descending Boston Center
03:00PM 42.0439 -72.5519 226° Southwest 179 206 2,500 -120 Descending Boston Center